createdAt,value
2019-01-28T00:01:39.348Z,4.52
2019-01-28T00:04:08.929Z,4.57
2019-01-28T00:06:38.457Z,4.42
2019-01-28T00:09:08.473Z,4.55
2019-01-28T00:11:37.886Z,4.41
2019-01-28T00:14:07.978Z,4.54
2019-01-28T00:16:37.586Z,4.21
2019-01-28T00:19:06.969Z,4.07
2019-01-28T00:21:36.463Z,4.14
2019-01-28T00:24:06.034Z,3.98
2019-01-28T00:26:35.563Z,4.08
2019-01-28T00:29:05.358Z,3.98
2019-01-28T00:31:34.815Z,4.00
2019-01-28T00:34:04.602Z,3.98
2019-01-28T00:36:35.691Z,3.98
2019-01-28T00:39:08.807Z,4.00
2019-01-28T00:41:38.272Z,3.84
2019-01-28T00:44:07.843Z,3.96
2019-01-28T00:46:37.315Z,3.97
2019-01-28T00:49:06.769Z,3.91
2019-01-28T00:51:36.254Z,3.80
2019-01-28T00:54:05.793Z,3.74
2019-01-28T00:56:35.375Z,3.66
2019-01-28T00:59:04.845Z,3.48
2019-01-28T01:01:34.339Z,3.40
2019-01-28T01:04:04.092Z,3.42
2019-01-28T01:06:33.579Z,3.33
2019-01-28T01:09:04.774Z,3.36
2019-01-28T01:11:34.226Z,3.32
2019-01-28T01:14:03.708Z,3.33
2019-01-28T01:16:33.171Z,3.22
2019-01-28T01:19:02.661Z,3.25
2019-01-28T01:21:32.119Z,3.12
2019-01-28T01:24:01.598Z,3.29
2019-01-28T01:26:31.057Z,3.24
2019-01-28T01:29:00.577Z,3.37
2019-01-28T01:31:30.041Z,3.23
2019-01-28T01:33:59.516Z,3.25
2019-01-28T01:36:29.175Z,3.20
2019-01-28T01:38:58.780Z,3.22
2019-01-28T01:41:28.276Z,3.23
2019-01-28T01:43:57.734Z,3.24
2019-01-28T01:46:27.205Z,3.10
2019-01-28T01:48:56.696Z,3.11
2019-01-28T01:51:26.158Z,3.10
2019-01-28T01:53:55.655Z,3.20
2019-01-28T01:56:25.128Z,3.16
2019-01-28T01:58:55.040Z,3.28
2019-01-28T02:01:24.630Z,3.38
2019-01-28T02:03:54.145Z,3.42
2019-01-28T02:06:23.630Z,3.39
2019-01-28T02:08:53.183Z,3.22
2019-01-28T02:11:22.681Z,3.34
2019-01-28T02:13:52.186Z,3.42
2019-01-28T02:16:21.689Z,3.38
2019-01-28T02:18:51.140Z,3.30
2019-01-28T02:21:20.656Z,3.48
2019-01-28T02:23:50.234Z,3.32
2019-01-28T02:26:19.709Z,3.41
2019-01-28T02:28:49.208Z,3.25
2019-01-28T02:31:18.680Z,3.46
2019-01-28T02:33:48.219Z,3.53
2019-01-28T02:36:17.672Z,3.61
2019-01-28T02:38:47.178Z,3.44
2019-01-28T02:41:16.727Z,3.50
2019-01-28T02:43:46.235Z,3.57
2019-01-28T02:46:15.883Z,3.68
2019-01-28T02:48:45.391Z,3.56
2019-01-28T02:51:14.869Z,3.57
2019-01-28T02:53:44.330Z,3.58
2019-01-28T02:56:13.826Z,3.53
2019-01-28T02:58:43.294Z,3.57
2019-01-28T03:01:12.798Z,3.58
2019-01-28T03:03:42.258Z,3.51
2019-01-28T03:06:11.938Z,3.41
2019-01-28T03:08:41.502Z,3.46
2019-01-28T03:11:10.995Z,3.39
2019-01-28T03:13:40.500Z,3.43
2019-01-28T03:16:10.003Z,3.50
2019-01-28T03:18:39.469Z,3.40
2019-01-28T03:21:09.008Z,3.56
2019-01-28T03:23:38.636Z,3.29
2019-01-28T03:26:08.593Z,3.25
2019-01-28T03:28:38.073Z,3.45
2019-01-28T03:31:07.533Z,3.57
2019-01-28T03:33:37.033Z,3.47
2019-01-28T03:36:06.603Z,3.54
2019-01-28T03:38:36.071Z,3.58
2019-01-28T03:41:05.658Z,3.56
2019-01-28T03:43:35.162Z,3.41
2019-01-28T03:46:04.910Z,3.38
2019-01-28T03:48:34.380Z,3.47
2019-01-28T03:51:03.867Z,3.45
2019-01-28T03:53:33.730Z,3.43
2019-01-28T03:56:03.181Z,3.34
2019-01-28T03:58:32.880Z,3.31
2019-01-28T04:01:02.329Z,3.38
2019-01-28T04:03:31.832Z,3.29
2019-01-28T04:06:01.310Z,3.43
2019-01-28T04:08:30.816Z,3.62
2019-01-28T04:11:00.410Z,3.32
2019-01-28T04:13:29.914Z,3.21
2019-01-28T04:15:59.486Z,3.15
2019-01-28T04:18:28.958Z,3.10
2019-01-28T04:20:58.438Z,3.10
2019-01-28T04:23:27.890Z,3.13
2019-01-28T04:25:57.399Z,2.98
2019-01-28T04:28:26.850Z,2.99
2019-01-28T04:30:56.409Z,3.19
2019-01-28T04:33:25.848Z,3.17
2019-01-28T04:35:55.420Z,3.06
2019-01-28T04:38:25.044Z,3.23
2019-01-28T04:40:54.515Z,3.30
2019-01-28T04:43:24.825Z,3.31
2019-01-28T04:45:54.322Z,3.18
2019-01-28T04:48:23.813Z,3.04
2019-01-28T04:50:53.275Z,3.13
2019-01-28T04:53:22.750Z,3.14
2019-01-28T04:55:52.369Z,3.30
2019-01-28T04:58:21.827Z,3.26
2019-01-28T05:00:51.344Z,3.09
2019-01-28T05:03:20.806Z,3.09
2019-01-28T05:05:50.262Z,3.09
2019-01-28T05:08:19.773Z,3.09
2019-01-28T05:10:49.224Z,3.14
2019-01-28T05:13:18.858Z,3.10
2019-01-28T05:15:48.316Z,3.13
2019-01-28T05:18:18.034Z,2.93
2019-01-28T05:20:47.526Z,2.79
2019-01-28T05:23:17.073Z,2.95
2019-01-28T05:25:46.629Z,3.02
2019-01-28T05:28:16.095Z,2.97
2019-01-28T05:30:45.580Z,2.96
2019-01-28T05:33:15.052Z,3.17
2019-01-28T05:35:44.719Z,3.09
2019-01-28T05:38:14.168Z,3.19
2019-01-28T05:40:43.657Z,3.27
2019-01-28T05:43:13.212Z,3.10
2019-01-28T05:45:42.702Z,3.09
2019-01-28T05:48:12.197Z,3.19
2019-01-28T05:50:41.605Z,3.27
2019-01-28T05:53:11.275Z,3.56
2019-01-28T05:55:40.748Z,3.30
2019-01-28T05:58:10.402Z,3.29
2019-01-28T06:00:45.877Z,3.32
2019-01-28T06:03:15.474Z,3.26
2019-01-28T06:05:45.265Z,3.35
2019-01-28T06:08:14.728Z,3.03
2019-01-28T06:10:44.462Z,3.21
2019-01-28T06:13:14.174Z,3.15
2019-01-28T06:15:43.701Z,3.06
2019-01-28T06:18:13.180Z,3.19
2019-01-28T06:20:42.706Z,3.32
2019-01-28T06:23:12.170Z,3.25
2019-01-28T06:25:41.758Z,3.17
2019-01-28T06:28:11.220Z,3.06
2019-01-28T06:30:40.722Z,3.06
2019-01-28T06:33:10.197Z,2.97
2019-01-28T06:35:39.846Z,3.17
2019-01-28T06:38:09.453Z,3.23
2019-01-28T06:40:39.225Z,3.21
2019-01-28T06:43:08.890Z,3.44
2019-01-28T06:45:38.362Z,3.51
2019-01-28T06:48:07.989Z,3.57
2019-01-28T06:50:37.847Z,3.20
2019-01-28T06:53:07.502Z,3.48
2019-01-28T06:55:36.971Z,3.43
2019-01-28T06:58:06.474Z,3.39
2019-01-28T07:00:37.396Z,3.41
2019-01-28T07:03:08.312Z,3.42
2019-01-28T07:05:37.799Z,3.54
2019-01-28T07:08:07.414Z,3.49
2019-01-28T07:10:36.896Z,3.43
2019-01-28T07:13:06.889Z,3.43
2019-01-28T07:15:36.510Z,3.42
2019-01-28T07:18:06.223Z,3.59
2019-01-28T07:20:35.787Z,3.52
2019-01-28T07:23:05.450Z,3.24
2019-01-28T07:25:34.980Z,3.49
2019-01-28T07:28:04.847Z,3.39
2019-01-28T07:30:36.455Z,3.35
2019-01-28T07:33:06.719Z,3.31
2019-01-28T07:35:36.354Z,3.50
2019-01-28T07:38:06.735Z,3.77
2019-01-28T07:40:36.313Z,3.56
2019-01-28T07:43:05.778Z,3.40
2019-01-28T07:45:45.145Z,3.38
2019-01-28T07:48:09.003Z,3.44
2019-01-28T07:50:38.506Z,3.26
2019-01-28T07:53:07.981Z,3.42
2019-01-28T07:55:37.507Z,3.42
2019-01-28T07:58:07.205Z,3.58
2019-01-28T08:00:36.677Z,3.60
2019-01-28T08:03:07.333Z,3.52
2019-01-28T08:05:36.817Z,3.47
2019-01-28T08:08:07.023Z,3.37
2019-01-28T08:10:36.452Z,3.47
2019-01-28T08:13:06.774Z,3.21
2019-01-28T08:15:36.479Z,3.41
2019-01-28T08:18:10.981Z,3.22
2019-01-28T08:20:38.114Z,3.17
2019-01-28T08:23:07.775Z,3.24
2019-01-28T08:25:37.279Z,3.60
2019-01-28T08:28:06.944Z,3.67
2019-01-28T08:30:38.243Z,3.29
2019-01-28T08:33:07.801Z,3.33
2019-01-28T08:35:38.537Z,3.51
2019-01-28T08:38:08.319Z,3.66
2019-01-28T08:40:37.896Z,3.48
2019-01-28T08:43:07.474Z,3.53
2019-01-28T08:45:37.169Z,3.40
2019-01-28T08:48:07.191Z,3.46
2019-01-28T08:50:36.920Z,3.82
2019-01-28T08:53:06.791Z,3.60
2019-01-28T08:55:36.590Z,3.72
2019-01-28T08:58:06.603Z,3.55
2019-01-28T09:00:38.481Z,3.74
2019-01-28T09:03:08.601Z,3.43
2019-01-28T09:05:38.514Z,3.57
2019-01-28T09:08:09.344Z,3.66
2019-01-28T09:10:39.537Z,3.89
2019-01-28T09:13:09.805Z,3.65
2019-01-28T09:15:39.709Z,3.33
2019-01-28T09:18:10.997Z,3.68
2019-01-28T09:20:41.035Z,3.48
2019-01-28T09:23:10.852Z,3.59
2019-01-28T09:25:40.911Z,3.81
2019-01-28T09:28:10.817Z,3.61
2019-01-28T09:30:40.491Z,3.83
2019-01-28T09:33:10.419Z,3.69
2019-01-28T09:35:40.199Z,4.10
2019-01-28T09:38:10.073Z,3.89
2019-01-28T09:40:40.008Z,3.89
2019-01-28T09:43:09.665Z,4.02
2019-01-28T09:45:41.398Z,3.72
2019-01-28T09:48:13.263Z,4.04
2019-01-28T09:50:42.919Z,4.12
2019-01-28T09:53:14.064Z,4.29
2019-01-28T09:55:43.698Z,4.14
2019-01-28T09:58:13.403Z,4.36
2019-01-28T10:00:47.029Z,4.44
2019-01-28T10:03:17.026Z,4.13
2019-01-28T10:05:47.030Z,4.24
2019-01-28T10:08:16.579Z,4.11
2019-01-28T10:10:46.507Z,4.12
2019-01-28T10:13:15.894Z,4.21
2019-01-28T10:15:45.269Z,4.18
2019-01-28T10:18:14.979Z,4.39
2019-01-28T10:20:46.698Z,4.19
2019-01-28T10:23:16.452Z,4.12
2019-01-28T10:25:46.142Z,4.06
2019-01-28T10:28:15.627Z,4.00
2019-01-28T10:30:45.916Z,3.90
2019-01-28T10:33:15.350Z,4.14
2019-01-28T10:35:46.188Z,4.33
2019-01-28T10:38:16.407Z,4.17
2019-01-28T10:40:46.758Z,4.39
2019-01-28T10:43:16.189Z,4.39
2019-01-28T10:45:45.711Z,4.18
2019-01-28T10:48:15.354Z,4.06
2019-01-28T10:50:45.201Z,4.26
2019-01-28T10:53:14.714Z,4.18
2019-01-28T10:55:44.536Z,4.01
2019-01-28T10:58:13.903Z,4.07
2019-01-28T11:00:46.108Z,4.13
2019-01-28T11:03:17.312Z,4.27
2019-01-28T11:05:46.684Z,3.81
2019-01-28T11:08:16.859Z,3.78
2019-01-28T11:10:46.410Z,3.86
2019-01-28T11:13:15.985Z,4.07
2019-01-28T11:15:45.756Z,4.28
2019-01-28T11:18:18.432Z,4.07
2019-01-28T11:20:47.932Z,4.19
2019-01-28T11:23:17.432Z,4.19
2019-01-28T11:25:47.042Z,4.18
2019-01-28T11:28:16.469Z,4.02
2019-01-28T11:30:51.276Z,4.12
2019-01-28T11:33:20.879Z,4.25
2019-01-28T11:35:50.434Z,4.14
2019-01-28T11:38:21.148Z,3.90
2019-01-28T11:40:50.583Z,3.90
2019-01-28T11:43:20.117Z,3.96
2019-01-28T11:45:55.200Z,3.93
2019-01-28T11:48:24.705Z,4.09
2019-01-28T11:50:56.111Z,4.25
2019-01-28T11:53:30.486Z,4.21
2019-01-28T11:56:00.317Z,4.22
2019-01-28T11:58:29.785Z,4.23
2019-01-28T12:01:30.633Z,4.23
2019-01-28T12:04:00.421Z,4.00
2019-01-28T12:06:29.788Z,4.17
2019-01-28T12:08:59.475Z,4.27
2019-01-28T12:11:28.846Z,4.15
2019-01-28T12:13:59.746Z,4.05
2019-01-28T12:16:29.342Z,4.38
2019-01-28T12:18:58.830Z,4.24
2019-01-28T12:21:28.530Z,4.30
2019-01-28T12:23:58.120Z,4.23
2019-01-28T12:26:27.705Z,4.17
2019-01-28T12:28:57.352Z,4.10
2019-01-28T12:31:26.725Z,4.06
2019-01-28T12:33:56.174Z,4.29
2019-01-28T12:36:25.753Z,4.22
2019-01-28T12:38:55.340Z,4.18
2019-01-28T12:41:24.831Z,3.96
2019-01-28T12:43:55.022Z,3.92
2019-01-28T12:46:25.065Z,4.00
2019-01-28T12:48:54.538Z,4.19
2019-01-28T12:51:24.031Z,4.21
2019-01-28T12:53:53.556Z,4.09
2019-01-28T12:56:23.164Z,3.98
2019-01-28T12:58:52.571Z,4.03
2019-01-28T13:01:22.180Z,4.12
2019-01-28T13:03:51.874Z,4.05
2019-01-28T13:06:22.816Z,3.99
2019-01-28T13:08:52.492Z,3.96
2019-01-28T13:11:22.106Z,3.82
2019-01-28T13:13:51.771Z,3.67
2019-01-28T13:16:21.305Z,3.75
2019-01-28T13:18:50.701Z,3.80
2019-01-28T13:21:22.202Z,3.91
2019-01-28T13:23:52.102Z,3.86
2019-01-28T13:26:21.575Z,3.73
2019-01-28T13:28:51.222Z,3.75
2019-01-28T13:31:20.685Z,4.04
2019-01-28T13:33:50.403Z,3.66
2019-01-28T13:36:19.874Z,3.70
2019-01-28T13:38:49.367Z,3.81
2019-01-28T13:41:18.767Z,3.84
2019-01-28T13:43:48.232Z,3.99
2019-01-28T13:46:17.713Z,3.94
2019-01-28T13:48:47.181Z,3.84
2019-01-28T13:51:16.896Z,3.76
2019-01-28T13:53:46.383Z,3.78
2019-01-28T13:56:15.876Z,3.85
2019-01-28T13:58:45.374Z,3.76
2019-01-28T14:01:14.777Z,3.79
2019-01-28T14:03:44.221Z,3.87
2019-01-28T14:06:13.664Z,3.84
2019-01-28T14:08:43.805Z,3.79
2019-01-28T14:11:13.326Z,3.88
2019-01-28T14:13:43.009Z,3.49
2019-01-28T14:16:12.576Z,3.41
2019-01-28T14:18:42.071Z,3.30
2019-01-28T14:21:11.591Z,3.50
2019-01-28T14:23:41.063Z,3.34
2019-01-28T14:26:11.041Z,3.44
2019-01-28T14:28:40.711Z,3.29
2019-01-28T14:31:10.597Z,3.27
2019-01-28T14:33:40.104Z,3.11
2019-01-28T14:36:09.809Z,2.99
2019-01-28T14:38:39.464Z,3.19
2019-01-28T14:41:09.009Z,3.19
2019-01-28T14:43:38.488Z,3.16
2019-01-28T14:46:08.006Z,2.92
2019-01-28T14:48:37.483Z,3.04
2019-01-28T14:51:07.440Z,2.83
2019-01-28T14:53:36.943Z,2.79
2019-01-28T14:56:07.114Z,2.79
2019-01-28T14:58:36.666Z,2.87
2019-01-28T15:01:06.601Z,2.78
2019-01-28T15:03:36.107Z,2.58
2019-01-28T15:06:05.765Z,2.54
2019-01-28T15:08:35.354Z,2.70
2019-01-28T15:11:05.752Z,2.84
2019-01-28T15:13:35.618Z,2.79
2019-01-28T15:16:09.027Z,2.98
2019-01-28T15:18:36.946Z,2.89
2019-01-28T15:21:07.425Z,2.99
2019-01-28T15:23:41.371Z,2.56
2019-01-28T15:26:10.915Z,2.63
2019-01-28T15:28:41.070Z,3.00
2019-01-28T15:31:11.961Z,2.77
2019-01-28T15:33:41.485Z,3.12
2019-01-28T15:36:11.019Z,2.90
2019-01-28T15:38:40.514Z,2.92
2019-01-28T15:41:09.983Z,2.75
2019-01-28T15:43:39.687Z,2.71
2019-01-28T15:46:09.161Z,2.72
2019-01-28T15:48:38.653Z,2.88
2019-01-28T15:51:08.215Z,2.66
2019-01-28T15:53:37.689Z,2.84
2019-01-28T15:56:07.400Z,3.08
2019-01-28T15:58:36.976Z,2.94
2019-01-28T16:01:06.815Z,2.89
2019-01-28T16:03:36.292Z,3.03
2019-01-28T16:06:05.963Z,3.04
2019-01-28T16:08:35.469Z,3.02
2019-01-28T16:11:05.357Z,2.87
2019-01-28T16:13:35.009Z,2.79
2019-01-28T16:16:05.017Z,3.09
2019-01-28T16:18:34.937Z,3.19
2019-01-28T16:21:04.979Z,3.06
2019-01-28T16:23:34.464Z,3.20
2019-01-28T16:26:03.960Z,3.12
2019-01-28T16:28:33.552Z,3.15
2019-01-28T16:31:03.080Z,3.03
2019-01-28T16:33:32.732Z,3.18
2019-01-28T16:36:02.338Z,2.98
2019-01-28T16:38:31.787Z,3.12
2019-01-28T16:41:01.445Z,3.18
2019-01-28T16:43:30.955Z,2.97
2019-01-28T16:46:00.438Z,3.08
2019-01-28T16:48:30.125Z,3.01
2019-01-28T16:50:59.590Z,3.14
2019-01-28T16:53:29.230Z,2.97
2019-01-28T16:55:58.925Z,2.93
2019-01-28T16:58:29.345Z,2.89
2019-01-28T17:00:58.840Z,2.85
2019-01-28T17:03:28.591Z,2.91
2019-01-28T17:05:58.189Z,2.90
2019-01-28T17:08:27.666Z,3.04
2019-01-28T17:10:57.169Z,3.09
2019-01-28T17:13:27.003Z,2.88
2019-01-28T17:15:56.463Z,2.83
2019-01-28T17:18:26.165Z,2.66
2019-01-28T17:20:55.685Z,2.71
2019-01-28T17:23:25.178Z,2.71
2019-01-28T17:25:54.713Z,2.59
2019-01-28T17:28:24.198Z,2.50
2019-01-28T17:30:53.685Z,2.47
2019-01-28T17:33:23.178Z,2.34
2019-01-28T17:35:52.695Z,2.65
2019-01-28T17:38:22.183Z,2.92
2019-01-28T17:40:51.671Z,2.64
2019-01-28T17:43:21.191Z,2.90
2019-01-28T17:45:50.751Z,2.77
2019-01-28T17:48:21.008Z,2.76
2019-01-28T17:50:50.529Z,2.57
2019-01-28T17:53:20.518Z,2.72
2019-01-28T17:55:51.826Z,2.78
2019-01-28T17:58:21.268Z,2.80
2019-01-28T18:01:09.615Z,2.84
2019-01-28T18:03:39.078Z,2.79
2019-01-28T18:06:08.576Z,2.51
2019-01-28T18:08:38.053Z,2.59
2019-01-28T18:11:07.820Z,2.55
2019-01-28T18:13:37.286Z,2.70
2019-01-28T18:16:07.271Z,2.67
2019-01-28T18:18:36.812Z,2.78
2019-01-28T18:21:06.462Z,2.65
2019-01-28T18:23:45.997Z,2.70
2019-01-28T18:26:15.858Z,2.55
2019-01-28T18:28:45.501Z,2.58
2019-01-28T18:31:14.984Z,2.73
2019-01-28T18:33:44.612Z,2.75
2019-01-28T18:36:14.482Z,2.63
2019-01-28T18:38:44.053Z,2.51
2019-01-28T18:41:13.924Z,2.50
2019-01-28T18:43:43.418Z,2.63
2019-01-28T18:46:13.059Z,2.55
2019-01-28T18:48:42.542Z,2.56
2019-01-28T18:51:12.806Z,2.58
2019-01-28T18:53:42.365Z,2.55
2019-01-28T18:56:11.925Z,2.59
2019-01-28T18:58:41.419Z,2.77
2019-01-28T19:01:12.210Z,2.69
2019-01-28T19:03:42.230Z,2.69
2019-01-28T19:06:36.949Z,2.76
2019-01-28T19:09:16.352Z,2.63
2019-01-28T19:12:00.909Z,2.58
2019-01-28T19:14:52.223Z,2.78
2019-01-28T19:17:43.885Z,2.90
2019-01-28T19:20:25.239Z,2.87
2019-01-28T19:23:04.340Z,2.64
2019-01-28T19:25:33.970Z,2.57
2019-01-28T19:28:03.433Z,2.74
2019-01-28T19:30:32.920Z,2.67
2019-01-28T19:33:02.503Z,2.74
2019-01-28T19:35:31.994Z,2.71
2019-01-28T19:38:01.510Z,2.68
2019-01-28T19:40:30.974Z,2.82
2019-01-28T19:43:00.448Z,2.75
2019-01-28T19:45:30.003Z,2.71
2019-01-28T19:47:59.775Z,2.56
2019-01-28T19:50:29.369Z,2.78
2019-01-28T19:52:59.069Z,2.62
2019-01-28T19:55:28.803Z,2.72
2019-01-28T19:57:58.472Z,2.83
2019-01-28T20:00:29.121Z,2.57
2019-01-28T20:03:01.173Z,2.69
2019-01-28T20:05:30.849Z,2.65
2019-01-28T20:08:00.322Z,2.67
2019-01-28T20:10:29.988Z,2.62
2019-01-28T20:12:59.497Z,2.66
2019-01-28T20:15:29.060Z,2.62
2019-01-28T20:17:58.604Z,2.48
2019-01-28T20:20:28.551Z,2.64
2019-01-28T20:22:58.111Z,2.60
2019-01-28T20:25:27.623Z,2.64
2019-01-28T20:27:57.150Z,2.70
2019-01-28T20:30:27.786Z,2.70
2019-01-28T20:32:57.256Z,2.76
2019-01-28T20:35:26.889Z,2.76
2019-01-28T20:37:56.398Z,2.66
2019-01-28T20:40:25.915Z,2.76
2019-01-28T20:42:55.501Z,2.77
2019-01-28T20:45:25.971Z,2.79
2019-01-28T20:47:55.704Z,2.46
2019-01-28T20:50:26.943Z,2.66
2019-01-28T20:52:56.972Z,2.47
2019-01-28T20:55:26.709Z,2.45
2019-01-28T20:57:56.500Z,2.42
2019-01-28T21:00:27.071Z,2.34
2019-01-28T21:02:56.514Z,2.43
2019-01-28T21:05:26.683Z,2.57
2019-01-28T21:07:56.957Z,2.49
2019-01-28T21:10:26.819Z,2.48
2019-01-28T21:12:56.449Z,2.57
2019-01-28T21:15:25.970Z,2.48
2019-01-28T21:17:55.424Z,2.65
2019-01-28T21:20:25.259Z,2.56
2019-01-28T21:22:54.858Z,2.67
2019-01-28T21:25:25.444Z,2.65
2019-01-28T21:27:55.041Z,2.49
2019-01-28T21:30:27.281Z,2.59
2019-01-28T21:32:56.813Z,2.55
2019-01-28T21:35:44.302Z,2.53
2019-01-28T21:38:17.239Z,2.70
2019-01-28T21:40:46.764Z,2.68
2019-01-28T21:43:16.452Z,2.62
2019-01-28T21:45:46.062Z,2.62
2019-01-28T21:48:15.585Z,2.70
2019-01-28T21:50:45.088Z,2.72
2019-01-28T21:53:14.950Z,2.64
2019-01-28T21:55:44.413Z,2.52
2019-01-28T21:58:13.866Z,2.59
2019-01-28T22:00:43.355Z,2.49
2019-01-28T22:03:12.824Z,2.44
2019-01-28T22:05:43.033Z,2.39
2019-01-28T22:08:12.634Z,2.33
2019-01-28T22:10:42.303Z,2.39
2019-01-28T22:13:11.784Z,2.37
2019-01-28T22:15:41.372Z,2.49
2019-01-28T22:18:10.878Z,2.37
2019-01-28T22:20:40.373Z,2.35
2019-01-28T22:23:09.921Z,2.32
2019-01-28T22:25:39.383Z,2.45
2019-01-28T22:28:08.975Z,2.50
2019-01-28T22:30:38.526Z,2.57
2019-01-28T22:33:08.969Z,2.39
2019-01-28T22:35:38.508Z,2.41
2019-01-28T22:38:07.970Z,2.42
2019-01-28T22:40:37.453Z,2.42
2019-01-28T22:43:07.058Z,2.43
2019-01-28T22:45:36.569Z,2.38
2019-01-28T22:48:06.347Z,2.53
2019-01-28T22:50:35.805Z,2.48
2019-01-28T22:53:05.465Z,2.55
2019-01-28T22:55:36.620Z,2.62
2019-01-28T22:58:06.588Z,2.61
2019-01-28T23:01:23.184Z,2.60
2019-01-28T23:03:52.660Z,2.53
2019-01-28T23:06:22.177Z,2.42
2019-01-28T23:08:51.687Z,2.27
2019-01-28T23:11:21.191Z,2.30
2019-01-28T23:13:50.761Z,2.26
2019-01-28T23:16:20.316Z,2.25
2019-01-28T23:18:49.850Z,2.21
2019-01-28T23:21:19.394Z,2.26
2019-01-28T23:23:49.083Z,2.32
2019-01-28T23:26:18.656Z,2.31
2019-01-28T23:28:48.164Z,2.21
2019-01-28T23:31:17.670Z,2.20
2019-01-28T23:33:47.150Z,2.10
2019-01-28T23:36:16.716Z,2.15
2019-01-28T23:38:46.280Z,2.15
2019-01-28T23:41:15.752Z,2.12
2019-01-28T23:43:45.236Z,2.13
2019-01-28T23:46:14.713Z,2.07
2019-01-28T23:48:44.621Z,2.25
2019-01-28T23:51:14.144Z,2.15
2019-01-28T23:53:43.766Z,2.07
2019-01-28T23:56:13.328Z,2.13
2019-01-28T23:58:42.793Z,2.25
